createdAt,value
2018-04-08T06:42:26.781Z,97518
2018-04-08T06:45:04.863Z,97517
2018-04-08T06:47:40.446Z,97515
2018-04-08T06:50:31.001Z,97512
2018-04-08T06:56:32.881Z,97506
2018-04-08T06:59:40.184Z,97506
2018-04-08T07:02:19.004Z,97510
2018-04-08T07:05:00.164Z,97504
2018-04-08T07:10:17.399Z,97504
2018-04-08T07:12:50.594Z,97499
2018-04-08T07:15:23.943Z,97500
2018-04-08T07:17:57.941Z,97494
2018-04-08T07:20:38.936Z,97496
2018-04-08T07:26:13.576Z,97487
2018-04-08T07:28:57.559Z,97486
2018-04-08T07:31:32.920Z,97483
2018-04-08T07:34:12.077Z,97481
2018-04-08T07:39:39.020Z,97483
2018-04-08T07:42:13.978Z,97473
2018-04-08T07:44:51.202Z,97475
2018-04-08T07:47:25.304Z,97475
2018-04-08T07:50:01.429Z,97469
2018-04-08T07:52:39.179Z,97478
2018-04-08T07:55:13.256Z,97476
2018-04-08T07:57:50.021Z,97479
2018-04-08T08:00:40.078Z,97472
2018-04-08T08:03:12.642Z,97473
2018-04-08T08:05:46.825Z,97473
2018-04-08T08:08:22.087Z,97467
2018-04-08T08:10:56.267Z,97469
2018-04-08T08:13:34.945Z,97469
2018-04-08T08:19:36.521Z,97463
2018-04-08T08:22:09.398Z,97455
2018-04-08T08:24:43.877Z,97455
2018-04-08T08:27:17.262Z,97446
2018-04-08T08:29:52.463Z,97446
2018-04-08T09:45:50.140Z,97360
2018-04-08T09:48:19.836Z,97358
2018-04-08T09:50:50.719Z,97356
2018-04-08T09:53:21.995Z,97354
2018-04-08T09:55:50.645Z,97348
2018-04-08T09:58:22.698Z,97352
2018-04-08T10:04:09.059Z,97351
2018-04-08T10:06:52.521Z,97346
2018-04-08T10:09:23.914Z,97339
2018-04-08T10:11:54.719Z,97345
2018-04-08T10:14:23.306Z,97341
2018-04-08T10:16:53.521Z,97346
2018-04-08T10:19:22.997Z,97341
2018-04-08T10:21:51.635Z,97339
2018-04-08T10:24:20.223Z,97335
2018-04-08T10:29:33.953Z,97327
2018-04-08T10:32:21.241Z,97323
2018-04-08T10:34:50.849Z,97315
2018-04-08T10:37:22.580Z,97310
2018-04-08T10:39:53.474Z,97314
2018-04-08T10:42:23.083Z,97312
2018-04-08T10:44:53.468Z,97309
2018-04-08T10:47:26.037Z,97304
2018-04-08T10:50:02.916Z,97301
2018-04-08T10:52:33.698Z,97302
2018-04-08T10:57:46.163Z,97294
2018-04-08T11:00:16.066Z,97293
2018-04-08T11:02:49.859Z,97293
2018-04-08T11:05:19.482Z,97287
2018-04-08T11:08:02.485Z,97287
2018-04-08T11:10:35.937Z,97282
2018-04-08T11:13:05.413Z,97278
2018-04-08T11:15:36.483Z,97270
2018-04-08T11:18:09.300Z,97266
2018-04-08T11:20:37.967Z,97264
2018-04-08T11:23:06.434Z,97259
2018-04-08T11:25:35.104Z,97266
2018-04-08T11:28:03.668Z,97262
2018-04-08T11:30:34.802Z,97256
2018-04-08T11:33:21.167Z,97249
2018-04-08T11:35:51.499Z,97244
2018-04-08T11:38:23.192Z,97241
2018-04-08T11:40:54.487Z,97239
2018-04-08T11:43:25.011Z,97238
2018-04-08T11:46:08.897Z,97236
2018-04-08T11:48:39.471Z,97236
2018-04-08T11:51:09.337Z,97231
2018-04-08T11:53:39.409Z,97228
2018-04-08T11:56:10.099Z,97229
2018-04-08T11:58:45.509Z,97221
2018-04-08T12:01:14.173Z,97216
2018-04-08T12:03:43.230Z,97212
2018-04-08T12:06:17.990Z,97209
2018-04-08T12:08:51.323Z,97204
2018-04-08T12:11:19.963Z,97200
2018-04-08T12:19:17.653Z,97190
2018-04-08T12:21:52.342Z,97188
2018-04-08T12:24:26.351Z,97181
2018-04-08T12:26:56.926Z,97183
2018-04-08T12:29:34.246Z,97186
2018-04-08T12:32:05.925Z,97181
2018-04-08T12:34:34.723Z,97180
2018-04-08T12:37:04.811Z,97176
2018-04-08T12:39:35.113Z,97171
2018-04-08T12:42:07.484Z,97163
2018-04-08T12:44:36.199Z,97157
2018-04-08T12:47:15.423Z,97153
2018-04-08T12:49:46.543Z,97158
2018-04-08T12:52:18.320Z,97156
2018-04-08T12:54:48.170Z,97155
2018-04-08T12:57:16.842Z,97153
2018-04-08T12:59:47.191Z,97153
2018-04-08T13:02:18.729Z,97152
2018-04-08T13:04:49.404Z,97152
2018-04-08T13:07:19.516Z,97152
2018-04-08T13:09:51.195Z,97146
2018-04-08T13:12:21.195Z,97136
2018-04-08T13:14:51.145Z,97131
2018-04-08T13:17:25.448Z,97127
2018-04-08T13:19:57.232Z,97126
2018-04-08T13:22:28.927Z,97125
2018-04-08T13:24:59.717Z,97133
2018-04-08T13:27:30.012Z,97121
2018-04-08T13:29:58.599Z,97122
2018-04-08T13:32:28.880Z,97110
2018-04-08T13:34:59.612Z,97111
2018-04-08T13:37:29.903Z,97102
2018-04-08T13:40:00.958Z,97107
2018-04-08T13:42:32.940Z,97103
2018-04-08T14:23:02.895Z,97058
2018-04-08T14:25:55.993Z,97053
2018-04-08T14:28:24.546Z,97057
2018-04-08T14:30:54.287Z,97054
2018-04-08T14:33:22.913Z,97055
2018-04-08T14:36:01.065Z,97050
2018-04-08T14:38:44.042Z,97051
2018-04-08T14:41:14.195Z,97051
2018-04-08T14:43:44.207Z,97053
2018-04-08T14:46:15.848Z,97052
2018-04-08T14:48:45.796Z,97051
2018-04-08T14:51:28.443Z,97053
2018-04-08T14:54:04.847Z,97048
2018-04-08T14:56:37.341Z,97052
2018-04-08T14:59:15.461Z,97046
2018-04-08T15:01:48.215Z,97048
2018-04-08T15:04:29.778Z,97054
2018-04-08T15:06:59.905Z,97048
2018-04-08T15:09:30.870Z,97049
2018-04-08T15:11:59.581Z,97045
2018-04-08T15:17:20.714Z,97041
2018-04-08T15:19:51.857Z,97039
2018-04-08T15:22:22.282Z,97037
2018-04-08T15:24:52.971Z,97038
2018-04-08T15:27:24.525Z,97035
2018-04-08T15:29:55.074Z,97034
2018-04-08T15:32:25.328Z,97026
2018-04-08T15:34:54.795Z,97029
2018-04-08T15:37:25.029Z,97024
2018-04-08T15:39:56.207Z,97024
2018-04-08T15:42:27.955Z,97023
2018-04-08T15:45:03.541Z,97020
2018-04-08T15:47:34.109Z,97020
2018-04-08T15:50:02.632Z,97014
2018-04-08T15:55:49.004Z,97015
2018-04-08T15:58:19.313Z,97012
2018-04-08T16:00:49.247Z,97013
2018-04-08T16:03:19.497Z,97015
2018-04-08T16:05:51.421Z,97015
2018-04-08T16:08:20.196Z,97016
2018-04-08T16:10:53.083Z,97021
2018-04-08T16:13:26.029Z,97022
2018-04-08T16:15:58.513Z,97025
2018-04-08T16:18:38.029Z,97026
2018-04-08T16:21:07.911Z,97027
2018-04-08T16:23:37.752Z,97031
2018-04-08T16:26:08.139Z,97032
2018-04-08T16:28:36.756Z,97028
2018-04-08T16:31:09.978Z,97028
2018-04-08T16:33:43.356Z,97027
2018-04-08T16:38:56.504Z,97029
2018-04-08T16:41:30.647Z,97032
2018-04-08T16:44:05.378Z,97028
2018-04-08T16:46:34.199Z,97031
2018-04-08T16:49:06.989Z,97026
2018-04-08T16:51:39.329Z,97022
2018-04-08T16:54:13.697Z,97021
2018-04-08T16:56:50.562Z,97017
2018-04-08T16:59:24.141Z,97020
2018-04-08T17:01:58.267Z,97016
2018-04-08T17:04:32.210Z,97009
2018-04-08T17:10:23.720Z,97017
2018-04-08T17:13:04.154Z,97013
2018-04-08T17:15:51.260Z,97018
2018-04-08T17:18:30.063Z,97012
2018-04-08T17:21:04.459Z,97017
2018-04-08T17:23:40.718Z,97015
2018-04-08T17:26:13.403Z,97021
2018-04-08T17:28:59.938Z,97019
2018-04-08T17:31:38.020Z,97016
2018-04-08T17:34:10.397Z,97017
2018-04-08T17:36:42.699Z,97026
2018-04-08T17:39:17.201Z,97024
2018-04-08T17:41:50.439Z,97029
2018-04-08T17:44:24.464Z,97032
2018-04-08T17:46:59.836Z,97039
2018-04-08T17:49:32.122Z,97038
2018-04-08T17:52:06.239Z,97044
2018-04-08T17:54:40.437Z,97049
2018-04-08T17:57:15.003Z,97057
2018-04-08T17:59:52.082Z,97061
2018-04-08T18:02:27.558Z,97067
2018-04-08T18:04:59.841Z,97068
2018-04-08T18:07:33.837Z,97072
2018-04-08T18:12:42.251Z,97077
2018-04-08T18:15:12.027Z,97082
2018-04-08T18:17:48.659Z,97080
2018-04-08T18:20:42.261Z,97081
2018-04-08T18:23:30.121Z,97093
2018-04-08T18:29:18.705Z,97112
2018-04-08T18:32:08.222Z,97116
2018-04-08T18:34:44.523Z,97120
2018-04-08T18:37:30.825Z,97119
2018-04-08T18:40:16.403Z,97128
2018-04-08T18:42:59.927Z,97136
2018-04-08T18:45:35.340Z,97142
2018-04-08T18:51:15.624Z,97149
2018-04-08T18:53:51.522Z,97147
2018-04-08T18:56:30.796Z,97148
2018-04-08T19:01:51.318Z,97152
2018-04-08T19:04:24.503Z,97150
2018-04-08T19:06:58.998Z,97152
2018-04-08T19:09:45.265Z,97156
2018-04-08T19:12:17.345Z,97152
2018-04-08T19:15:12.377Z,97154
2018-04-08T19:20:34.119Z,97163
2018-04-08T19:28:29.604Z,97165
2018-04-08T19:31:22.502Z,97163
2018-04-08T19:34:11.028Z,97163
2018-04-08T19:36:50.579Z,97163
2018-04-08T19:39:42.284Z,97161
2018-04-08T19:42:33.164Z,97161
2018-04-08T19:48:28.376Z,97149
2018-04-08T19:51:39.905Z,97150
2018-04-08T19:57:27.657Z,97141
2018-04-08T20:02:39.981Z,97152
2018-04-08T20:05:14.083Z,97149
2018-04-08T20:07:48.843Z,97150
2018-04-08T20:10:24.741Z,97152
2018-04-08T20:13:04.705Z,97144
2018-04-08T20:15:49.079Z,97144
2018-04-08T20:18:26.560Z,97153
2018-04-08T20:21:01.066Z,97158
2018-04-08T20:23:47.284Z,97163
2018-04-08T20:27:10.700Z,97160
2018-04-08T20:30:20.102Z,97163
2018-04-08T20:36:00.676Z,97159
2018-04-08T20:38:53.543Z,97161
2018-04-08T20:41:26.189Z,97158
2018-04-08T20:44:02.200Z,97160
2018-04-08T20:46:39.198Z,97159
2018-04-08T20:49:12.951Z,97159
2018-04-08T20:51:48.265Z,97163
2018-04-08T20:57:39.499Z,97160
2018-04-08T21:03:08.684Z,97160
2018-04-08T21:05:43.842Z,97163
2018-04-08T21:08:19.861Z,97162
2018-04-08T21:11:08.921Z,97155
2018-04-08T21:13:43.818Z,97158
2018-04-08T21:16:21.941Z,97154
2018-04-08T21:19:07.359Z,97158
2018-04-08T21:21:51.165Z,97166
2018-04-08T21:24:39.799Z,97161
2018-04-08T21:27:30.420Z,97162
2018-04-08T21:33:15.760Z,97164
2018-04-08T21:35:52.667Z,97165
2018-04-08T21:41:05.265Z,97167
2018-04-08T21:43:42.166Z,97162
2018-04-08T21:49:07.994Z,97157
2018-04-08T22:04:07.363Z,97161
2018-04-08T22:07:05.858Z,97153
2018-04-08T22:09:57.043Z,97153
2018-04-08T22:43:19.461Z,97163
2018-04-08T22:45:52.943Z,97156
2018-04-08T22:48:26.221Z,97154
2018-04-08T22:51:00.282Z,97158
2018-04-08T22:53:43.301Z,97157
2018-04-08T22:56:18.838Z,97160
2018-04-08T22:58:52.346Z,97161
2018-04-08T23:01:25.800Z,97167
2018-04-08T23:04:00.077Z,97168
2018-04-08T23:06:33.618Z,97167
2018-04-08T23:09:08.039Z,97167
2018-04-08T23:11:42.607Z,97161
2018-04-08T23:14:17.160Z,97168
2018-04-08T23:17:05.646Z,97164
2018-04-08T23:19:39.660Z,97164
2018-04-08T23:22:12.880Z,97165
2018-04-08T23:24:49.138Z,97170
2018-04-08T23:27:23.183Z,97174
2018-04-08T23:30:07.369Z,97167
2018-04-08T23:32:52.454Z,97171
2018-04-08T23:35:25.343Z,97164
2018-04-08T23:37:58.242Z,97166
2018-04-08T23:40:30.901Z,97166
2018-04-08T23:43:04.379Z,97164
2018-04-08T23:45:37.462Z,97164
2018-04-08T23:48:10.298Z,97165
2018-04-08T23:50:44.537Z,97167
2018-04-08T23:53:17.979Z,97157
2018-04-08T23:55:51.302Z,97150
2018-04-08T23:58:24.021Z,97142
